Time;durP1;ratioP1;P1;durP2;ratioP2;P2;SDS_P1;SDS_P2;PMS_P1;PMS_P2;Temp;Humidity;BMP_temperature;BMP_pressure;BME280_temperature;BME280_humidity;BME280_pressure;Samples;Min_cycle;Max_cycle;Signal;HPM_P1;HPM_P2
2024/01/21 00:02:15;;;;;;;0.40;0.40;;;-1.20;94.20;;;;;;10419689;28;20264;-82
2024/01/21 00:07:18;;;;;;;0.30;0.30;;;-1.30;94.30;;;;;;10418990;28;20206;-82
2024/01/21 00:12:21;;;;;;;0.30;0.30;;;-1.30;94.50;;;;;;10418856;28;20236;-82
2024/01/21 00:17:23;;;;;;;0.40;0.40;;;-1.30;94.40;;;;;;10417506;28;20745;-83
2024/01/21 00:22:27;;;;;;;0.40;0.40;;;-1.30;94.30;;;;;;10431838;28;20217;-82
2024/01/21 00:27:29;;;;;;;0.40;0.40;;;-1.30;94.30;;;;;;10457549;28;20197;-82
2024/01/21 00:32:31;;;;;;;0.30;0.30;;;-1.30;94.20;;;;;;10417363;28;20236;-82
2024/01/21 00:37:35;;;;;;;0.30;0.30;;;-1.30;94.20;;;;;;10415753;28;20288;-81
2024/01/21 00:42:38;;;;;;;0.40;0.40;;;-1.30;94.20;;;;;;10394433;28;20217;-81
2024/01/21 00:47:40;;;;;;;0.30;0.30;;;-1.40;94.10;;;;;;10448027;28;20197;-81
2024/01/21 00:52:44;;;;;;;0.30;0.30;;;-1.40;94.00;;;;;;10415590;28;20768;-83
2024/01/21 00:57:46;;;;;;;0.30;0.30;;;-1.40;93.80;;;;;;10409602;28;20202;-81
2024/01/21 01:02:49;;;;;;;0.30;0.30;;;-1.40;94.00;;;;;;10410277;28;20213;-81
2024/01/21 01:07:53;;;;;;;0.30;0.30;;;-1.40;93.90;;;;;;10424047;28;20201;-81
2024/01/21 01:12:55;;;;;;;0.30;0.30;;;-1.40;93.90;;;;;;10426907;28;20218;-81
2024/01/21 01:17:58;;;;;;;0.20;0.20;;;-1.50;94.10;;;;;;10390198;28;20266;-81
2024/01/21 01:23:02;;;;;;;0.30;0.30;;;-1.40;94.30;;;;;;10410019;28;20225;-81
2024/01/21 01:28:04;;;;;;;0.30;0.30;;;-1.40;94.00;;;;;;10435992;28;20681;-81
2024/01/21 01:33:07;;;;;;;0.30;0.30;;;-1.40;93.90;;;;;;10439534;28;20370;-84
2024/01/21 01:38:12;;;;;;;0.30;0.30;;;-1.40;94.10;;;;;;10438251;28;20189;-83
2024/01/21 01:43:14;;;;;;;0.30;0.30;;;-1.30;94.00;;;;;;10456590;28;20254;-80
2024/01/21 01:48:17;;;;;;;0.30;0.30;;;-1.30;93.70;;;;;;10454699;28;20209;-82
2024/01/21 01:53:21;;;;;;;0.30;0.30;;;-1.30;93.80;;;;;;10459578;28;20309;-82
2024/01/21 01:58:27;;;;;;;0.30;0.30;;;-1.20;93.80;;;;;;10455562;28;20255;-83
2024/01/21 02:03:30;;;;;;;0.30;0.30;;;-1.20;93.80;;;;;;10431247;28;20270;-82
2024/01/21 02:08:34;;;;;;;0.30;0.30;;;-1.20;93.60;;;;;;10441568;28;20247;-80
2024/01/21 02:13:36;;;;;;;0.30;0.30;;;-1.20;93.70;;;;;;10436745;28;20748;-83
2024/01/21 02:18:40;;;;;;;0.30;0.30;;;-1.30;93.90;;;;;;10453746;28;20552;-82
2024/01/21 02:23:44;;;;;;;0.30;0.30;;;-1.20;93.70;;;;;;10443007;28;20232;-81
2024/01/21 02:28:46;;;;;;;0.30;0.30;;;-1.20;93.50;;;;;;10457071;28;20211;-79
2024/01/21 02:33:49;;;;;;;0.30;0.30;;;-1.20;93.70;;;;;;10452957;28;20236;-80
2024/01/21 02:38:52;;;;;;;0.30;0.30;;;-1.30;93.70;;;;;;10439587;28;20197;-81
2024/01/21 02:43:55;;;;;;;0.30;0.30;;;-1.30;93.90;;;;;;10432036;28;20224;-81
2024/01/21 02:48:57;;;;;;;0.30;0.30;;;-1.30;93.70;;;;;;10444667;28;20558;-83
2024/01/21 02:54:01;;;;;;;0.33;0.33;;;-1.20;93.70;;;;;;10448361;28;20217;-80
2024/01/21 02:59:03;;;;;;;0.37;0.37;;;-1.30;93.40;;;;;;10452241;28;20543;-81
2024/01/21 03:04:05;;;;;;;0.40;0.40;;;-1.30;93.50;;;;;;10448142;28;20282;-81
2024/01/21 03:09:09;;;;;;;0.30;0.30;;;-1.40;93.60;;;;;;10446512;28;20200;-81
2024/01/21 03:14:11;;;;;;;0.30;0.30;;;-1.40;93.70;;;;;;10453051;28;20224;-82
2024/01/21 03:19:14;;;;;;;0.30;0.30;;;-1.40;93.70;;;;;;10447331;28;20390;-83
2024/01/21 03:24:18;;;;;;;0.40;0.40;;;-1.40;93.80;;;;;;10451204;28;20277;-83
2024/01/21 03:29:20;;;;;;;0.30;0.30;;;-1.40;93.70;;;;;;10444246;28;20220;-80
2024/01/21 03:34:23;;;;;;;0.30;0.30;;;-1.40;93.80;;;;;;10444383;28;20229;-81
2024/01/21 03:39:27;;;;;;;0.40;0.40;;;-1.40;93.70;;;;;;10427616;28;20190;-81
2024/01/21 03:44:29;;;;;;;0.40;0.40;;;-1.30;93.50;;;;;;10430173;28;20213;-82
2024/01/21 03:49:31;;;;;;;0.40;0.40;;;-1.30;93.70;;;;;;10442329;28;20204;-80
2024/01/21 03:54:35;;;;;;;0.40;0.40;;;-1.30;93.60;;;;;;10441663;28;20238;-82
2024/01/21 03:59:39;;;;;;;0.40;0.40;;;-1.30;93.30;;;;;;10423739;28;20236;-80
2024/01/21 04:04:44;;;;;;;0.50;0.50;;;-1.30;93.50;;;;;;10440501;28;20282;-80
2024/01/21 04:09:48;;;;;;;0.60;0.60;;;-1.30;93.40;;;;;;10440310;28;20207;-83
2024/01/21 04:14:51;;;;;;;0.50;0.50;;;-1.30;93.40;;;;;;10423510;28;20236;-81
2024/01/21 04:19:53;;;;;;;0.60;0.60;;;-1.30;93.40;;;;;;10439594;28;20208;-82
2024/01/21 04:24:57;;;;;;;0.50;0.50;;;-1.30;93.60;;;;;;10439620;28;20217;-81
2024/01/21 04:29:59;;;;;;;0.47;0.47;;;-1.20;93.40;;;;;;10445669;28;20202;-81
2024/01/21 04:35:02;;;;;;;0.50;0.50;;;-1.20;93.30;;;;;;10420448;28;20240;-81
2024/01/21 04:40:07;;;;;;;0.50;0.50;;;-1.20;93.30;;;;;;10462427;28;20819;-79
2024/01/21 04:45:10;;;;;;;0.60;0.60;;;-1.20;93.30;;;;;;10449979;28;20267;-83
2024/01/21 04:50:12;;;;;;;0.60;0.60;;;-1.20;93.50;;;;;;10435011;28;20251;-81
2024/01/21 04:55:16;;;;;;;0.50;0.50;;;-1.20;93.30;;;;;;10435349;28;20630;-80
2024/01/21 05:00:19;;;;;;;0.60;0.60;;;-1.20;93.30;;;;;;10439386;28;20593;-82
2024/01/21 05:05:21;;;;;;;0.50;0.50;;;-1.20;93.10;;;;;;10443974;28;20193;-80
2024/01/21 05:10:25;;;;;;;0.50;0.50;;;-1.20;93.20;;;;;;10439880;28;20207;-81
2024/01/21 05:15:27;;;;;;;0.60;0.60;;;-1.20;93.10;;;;;;10440035;28;20219;-83
2024/01/21 05:20:30;;;;;;;0.50;0.50;;;-1.20;93.20;;;;;;10438631;28;20247;-81
2024/01/21 05:25:33;;;;;;;0.50;0.50;;;-1.10;93.30;;;;;;10504495;22;20636;-80
2024/01/21 05:30:36;;;;;;;0.50;0.50;;;-1.10;93.20;;;;;;10504783;28;20184;-83
2024/01/21 05:35:38;;;;;;;0.40;0.40;;;-1.10;93.20;;;;;;10503337;28;20793;-82
2024/01/21 05:40:42;;;;;;;0.50;0.50;;;-1.10;93.20;;;;;;10502717;28;20216;-81
2024/01/21 05:45:45;;;;;;;0.50;0.50;;;-1.10;93.20;;;;;;10502029;28;20704;-81
2024/01/21 05:50:47;;;;;;;0.40;0.40;;;-1.00;92.90;;;;;;10504905;28;20207;-83
2024/01/21 05:55:51;;;;;;;0.60;0.60;;;-1.00;92.90;;;;;;10525706;28;20216;-79
2024/01/21 06:00:53;;;;;;;0.50;0.50;;;-1.00;92.80;;;;;;10496779;28;20605;-79
2024/01/21 06:05:56;;;;;;;0.60;0.60;;;-1.10;93.00;;;;;;10495461;28;20192;-79
2024/01/21 06:11:00;;;;;;;0.50;0.50;;;-1.20;93.20;;;;;;10476883;28;20210;-80
2024/01/21 06:16:03;;;;;;;0.40;0.40;;;-1.20;93.30;;;;;;10516583;28;20196;-81
2024/01/21 06:21:05;;;;;;;0.40;0.40;;;-1.10;93.30;;;;;;10494441;28;20253;-78
2024/01/21 06:26:17;;;;;;;0.50;0.50;;;-1.10;93.20;;;;;;10492227;28;20629;-81
2024/01/21 06:31:20;;;;;;;0.43;0.43;;;-1.10;93.30;;;;;;10477126;28;20709;-81
2024/01/21 06:36:23;;;;;;;0.60;0.60;;;-1.10;93.20;;;;;;10457976;28;20193;-82
2024/01/21 06:41:26;;;;;;;0.53;0.53;;;-1.20;93.50;;;;;;10472454;28;20218;-79
2024/01/21 06:46:29;;;;;;;0.60;0.60;;;-1.20;93.10;;;;;;10487869;28;20195;-81
2024/01/21 06:51:34;;;;;;;0.50;0.50;;;-1.40;93.20;;;;;;10484776;28;20223;-80
2024/01/21 06:56:38;;;;;;;0.60;0.60;;;-1.40;93.10;;;;;;10486453;28;20215;-79
2024/01/21 07:01:40;;;;;;;0.60;0.60;;;-1.40;93.40;;;;;;10476508;28;20219;-79
2024/01/21 07:06:43;;;;;;;0.60;0.60;;;-1.40;93.70;;;;;;10476007;28;20681;-86
2024/01/21 07:11:46;;;;;;;0.57;0.57;;;-1.40;93.50;;;;;;10511702;28;20200;-82
2024/01/21 07:16:49;;;;;;;0.60;0.60;;;-1.30;94.10;;;;;;10482661;28;20188;-78
2024/01/21 07:21:51;;;;;;;0.40;0.40;;;-1.20;93.70;;;;;;10463592;28;20255;-81
2024/01/21 07:26:55;;;;;;;0.40;0.40;;;-1.20;93.80;;;;;;10481078;28;20200;-79
2024/01/21 07:31:57;;;;;;;0.30;0.30;;;-1.10;94.00;;;;;;10479453;28;20261;-79
2024/01/21 07:37:00;;;;;;;0.60;0.60;;;-1.00;94.10;;;;;;10476698;28;20192;-80
2024/01/21 07:42:04;;;;;;;0.60;0.60;;;-0.90;94.10;;;;;;10506251;28;20906;-80
2024/01/21 07:47:06;;;;;;;0.40;0.40;;;-0.80;93.90;;;;;;10458044;28;20200;-78
2024/01/21 07:52:10;;;;;;;0.60;0.60;;;-0.70;93.80;;;;;;10504653;28;20215;-80
2024/01/21 07:57:13;;;;;;;0.50;0.50;;;-0.60;94.00;;;;;;10456789;28;20207;-81
2024/01/21 08:02:16;;;;;;;0.50;0.50;;;-0.50;94.10;;;;;;10456814;28;20221;-81
2024/01/21 08:07:18;;;;;;;0.60;0.60;;;-0.30;94.20;;;;;;10473905;28;20197;-81
2024/01/21 08:12:22;;;;;;;0.50;0.50;;;-0.10;94.30;;;;;;10502510;28;20220;-82
2024/01/21 08:17:24;;;;;;;0.60;0.60;;;0.00;94.30;;;;;;10479892;28;20182;-84
2024/01/21 08:22:27;;;;;;;0.40;0.40;;;0.20;94.40;;;;;;10538344;28;20212;-81
2024/01/21 08:27:31;;;;;;;0.50;0.50;;;0.40;94.00;;;;;;10478507;28;20223;-79
2024/01/21 08:32:33;;;;;;;0.30;0.30;;;0.60;94.10;;;;;;10528652;28;20322;-79
2024/01/21 08:37:35;;;;;;;0.30;0.30;;;0.80;94.00;;;;;;10455993;28;20205;-78
2024/01/21 08:42:39;;;;;;;0.40;0.40;;;0.90;93.90;;;;;;10477232;28;20217;-82
2024/01/21 08:47:41;;;;;;;0.30;0.30;;;1.10;93.90;;;;;;10463120;28;20320;-80
2024/01/21 08:52:44;;;;;;;0.20;0.20;;;1.20;93.70;;;;;;10455697;28;20243;-80
2024/01/21 08:57:48;;;;;;;0.30;0.30;;;1.30;93.80;;;;;;10479763;28;20255;-82
2024/01/21 09:02:51;;;;;;;0.40;0.40;;;1.40;93.80;;;;;;10472222;28;20212;-81
2024/01/21 09:07:53;;;;;;;0.43;0.43;;;1.50;94.00;;;;;;10463343;28;20197;-85
2024/01/21 09:12:57;;;;;;;0.40;0.40;;;1.70;94.10;;;;;;10495368;28;20625;-81
2024/01/21 09:17:59;;;;;;;0.47;0.47;;;1.80;93.90;;;;;;10497234;28;20204;-80
2024/01/21 09:23:02;;;;;;;0.40;0.40;;;1.80;93.90;;;;;;10449645;28;20243;-78
2024/01/21 09:28:06;;;;;;;0.40;0.40;;;1.90;93.70;;;;;;10473108;28;20201;-83
2024/01/21 09:33:09;;;;;;;0.40;0.40;;;2.00;93.70;;;;;;10462791;28;20248;-82
2024/01/21 09:38:13;;;;;;;0.40;0.40;;;2.00;93.70;;;;;;10480299;28;20196;-79
2024/01/21 09:43:17;;;;;;;0.40;0.40;;;2.10;93.90;;;;;;10457001;28;20225;-82
2024/01/21 09:48:20;;;;;;;0.40;0.40;;;2.20;93.60;;;;;;10455136;28;20756;-80
2024/01/21 09:53:23;;;;;;;0.40;0.40;;;2.30;93.40;;;;;;10491128;28;20221;-80
2024/01/21 09:58:28;;;;;;;0.40;0.40;;;2.50;93.20;;;;;;10465961;28;20197;-80
2024/01/21 10:03:31;;;;;;;0.40;0.40;;;2.70;92.90;;;;;;10502448;28;20224;-82
2024/01/21 10:08:33;;;;;;;0.40;0.40;;;2.90;92.50;;;;;;10468698;28;20197;-80
2024/01/21 10:13:38;;;;;;;0.40;0.40;;;3.00;92.50;;;;;;10488837;28;20217;-80
2024/01/21 10:18:47;;;;;;;0.10;0.10;;;3.20;92.50;;;;;;10542403;28;20265;-82
2024/01/21 10:23:50;;;;;;;0.33;0.33;;;3.30;92.30;;;;;;10549289;28;20289;-82
2024/01/21 10:28:53;;;;;;;0.43;0.43;;;3.40;92.60;;;;;;10505132;28;20267;-81
2024/01/21 10:33:56;;;;;;;0.40;0.40;;;3.50;92.10;;;;;;10462012;28;20225;-79
2024/01/21 10:39:02;;;;;;;0.40;0.40;;;3.60;92.40;;;;;;10459511;28;20193;-78
2024/01/21 10:44:08;;;;;;;0.40;0.40;;;3.70;91.70;;;;;;10538870;28;20208;-81
2024/01/21 10:49:12;;;;;;;0.40;0.40;;;4.00;90.30;;;;;;10440425;28;20262;-80
2024/01/21 10:54:15;;;;;;;0.40;0.40;;;4.10;90.70;;;;;;10534828;28;20220;-79
2024/01/21 10:59:19;;;;;;;0.40;0.40;;;4.30;90.80;;;;;;10523208;28;20564;-82
2024/01/21 11:04:22;;;;;;;0.40;0.40;;;4.40;90.90;;;;;;10471870;28;20209;-80
2024/01/21 11:09:28;;;;;;;0.40;0.40;;;4.50;91.10;;;;;;10533246;28;20211;-82
2024/01/21 11:14:34;;;;;;;0.30;0.30;;;4.70;91.10;;;;;;10510832;28;20269;-80
2024/01/21 11:19:43;;;;;;;0.40;0.40;;;4.80;91.00;;;;;;10521102;28;20204;-81
2024/01/21 11:24:46;;;;;;;0.40;0.40;;;4.90;91.00;;;;;;10529193;22;20275;-79
2024/01/21 11:29:51;;;;;;;0.40;0.40;;;5.00;90.60;;;;;;10458545;28;20206;-79
2024/01/21 11:34:53;;;;;;;0.40;0.40;;;5.10;89.20;;;;;;10430982;28;20222;-79
2024/01/21 11:39:56;;;;;;;0.40;0.40;;;5.20;88.30;;;;;;10416574;28;20202;-81
2024/01/21 11:45:04;;;;;;;0.40;0.40;;;5.20;89.10;;;;;;10412377;28;20260;-78
2024/01/21 11:50:07;;;;;;;0.40;0.40;;;5.20;88.80;;;;;;10415466;28;20248;-78
2024/01/21 11:55:09;;;;;;;0.40;0.40;;;5.20;89.50;;;;;;10413110;28;20210;-79
2024/01/21 12:00:15;;;;;;;0.40;0.40;;;5.30;90.00;;;;;;10399241;28;20197;-78
2024/01/21 12:05:18;;;;;;;0.30;0.30;;;5.30;90.70;;;;;;10410423;28;20210;-78
2024/01/21 12:10:20;;;;;;;0.40;0.40;;;5.20;90.70;;;;;;10403691;28;20671;-81
2024/01/21 12:15:24;;;;;;;0.40;0.40;;;5.00;91.00;;;;;;10392478;28;20229;-81
2024/01/21 12:20:27;;;;;;;0.40;0.40;;;4.80;91.20;;;;;;10388783;28;20205;-80
2024/01/21 12:25:30;;;;;;;0.30;0.30;;;4.60;91.60;;;;;;10410172;28;20598;-79
2024/01/21 12:30:38;;;;;;;0.30;0.30;;;4.50;91.50;;;;;;10405804;28;20202;-80
2024/01/21 12:35:41;;;;;;;0.30;0.30;;;4.60;91.10;;;;;;10417189;28;20256;-81
2024/01/21 12:40:44;;;;;;;0.30;0.30;;;4.60;91.20;;;;;;10415421;28;20206;-79
2024/01/21 12:45:48;;;;;;;0.30;0.30;;;4.60;91.50;;;;;;10415607;28;20201;-78
2024/01/21 12:50:50;;;;;;;0.40;0.40;;;4.60;91.90;;;;;;10413918;28;20205;-78
2024/01/21 12:55:52;;;;;;;0.30;0.30;;;4.60;91.90;;;;;;10411711;28;20222;-80
2024/01/21 13:00:56;;;;;;;0.30;0.30;;;4.60;91.80;;;;;;10413102;28;20263;-78
2024/01/21 13:06:00;;;;;;;0.30;0.30;;;4.70;91.30;;;;;;10418064;28;20213;-80
2024/01/21 13:11:03;;;;;;;0.20;0.20;;;4.90;91.20;;;;;;10416444;28;20664;-79
2024/01/21 13:16:09;;;;;;;0.30;0.30;;;4.90;91.70;;;;;;10395822;28;20218;-80
2024/01/21 13:21:12;;;;;;;0.20;0.20;;;4.90;91.40;;;;;;10433965;28;20201;-79
2024/01/21 13:26:15;;;;;;;0.33;0.33;;;5.10;90.90;;;;;;10404842;28;20226;-78
2024/01/21 13:31:18;;;;;;;0.30;0.30;;;5.20;91.10;;;;;;10427691;28;20767;-80
2024/01/21 13:36:21;;;;;;;0.30;0.30;;;5.40;90.60;;;;;;10415053;28;20225;-78
2024/01/21 13:41:23;;;;;;;0.30;0.30;;;5.50;90.70;;;;;;10417323;28;20206;-78
2024/01/21 13:46:27;;;;;;;0.40;0.40;;;5.50;90.80;;;;;;10419720;28;20194;-78
2024/01/21 13:51:29;;;;;;;0.30;0.30;;;5.50;91.10;;;;;;10424683;28;20202;-82
2024/01/21 13:56:32;;;;;;;0.30;0.30;;;5.50;90.80;;;;;;10436246;28;20210;-79
2024/01/21 14:01:35;;;;;;;0.30;0.30;;;5.50;90.70;;;;;;10410129;28;20194;-79
2024/01/21 14:06:41;;;;;;;0.40;0.40;;;5.50;91.00;;;;;;10420696;28;20186;-82
2024/01/21 14:11:45;;;;;;;0.30;0.30;;;5.40;91.10;;;;;;10424096;28;20579;-81
2024/01/21 14:16:49;;;;;;;0.40;0.40;;;5.40;91.60;;;;;;10439684;28;20695;-80
2024/01/21 14:21:51;;;;;;;0.40;0.40;;;5.30;91.90;;;;;;10424540;28;20226;-79
2024/01/21 14:26:53;;;;;;;0.40;0.40;;;5.20;92.90;;;;;;10428073;28;20198;-81
2024/01/21 14:31:57;;;;;;;0.20;0.20;;;5.10;93.40;;;;;;10431712;28;20218;-79
2024/01/21 14:36:59;;;;;;;0.30;0.30;;;5.00;93.90;;;;;;10443519;28;20213;-77
2024/01/21 14:42:02;;;;;;;0.40;0.40;;;4.90;94.20;;;;;;10427286;28;20222;-80
2024/01/21 14:47:06;;;;;;;0.40;0.40;;;4.80;94.40;;;;;;10407617;28;20205;-80
2024/01/21 14:52:08;;;;;;;0.40;0.40;;;4.70;94.70;;;;;;10416716;28;20222;-79
2024/01/21 14:57:11;;;;;;;0.50;0.50;;;4.80;94.80;;;;;;10391080;28;20210;-79
2024/01/21 15:02:14;;;;;;;0.30;0.30;;;4.80;95.00;;;;;;10406044;28;20725;-78
2024/01/21 15:07:18;;;;;;;0.60;0.60;;;4.80;95.40;;;;;;10421945;28;20197;-80
2024/01/21 15:12:20;;;;;;;0.50;0.50;;;4.90;95.40;;;;;;10424927;28;20501;-81
2024/01/21 15:17:24;;;;;;;0.50;0.50;;;4.90;95.50;;;;;;10429399;28;20214;-78
2024/01/21 15:22:27;;;;;;;0.10;0.10;;;4.80;95.50;;;;;;10417025;28;20372;-79
2024/01/21 15:27:29;;;;;;;0.50;0.50;;;4.80;95.70;;;;;;10420050;28;20235;-78
2024/01/21 15:32:33;;;;;;;0.50;0.50;;;4.70;95.90;;;;;;10422507;28;20225;-79
2024/01/21 15:37:35;;;;;;;0.40;0.40;;;4.70;96.00;;;;;;10415009;28;20610;-80
2024/01/21 15:42:38;;;;;;;0.40;0.40;;;4.60;96.00;;;;;;10422941;28;20699;-79
2024/01/21 15:47:42;;;;;;;0.40;0.40;;;4.60;96.00;;;;;;10425522;28;20198;-78
2024/01/21 15:52:44;;;;;;;0.50;0.50;;;4.50;96.10;;;;;;10414403;28;20710;-79
2024/01/21 15:57:47;;;;;;;0.43;0.43;;;4.40;96.10;;;;;;10411282;28;20225;-76
2024/01/21 16:02:51;;;;;;;0.37;0.37;;;4.30;96.10;;;;;;10416468;28;20222;-80
2024/01/21 16:07:53;;;;;;;0.50;0.50;;;4.20;96.20;;;;;;10407536;28;20189;-80
2024/01/21 16:12:55;;;;;;;0.47;0.47;;;4.20;96.00;;;;;;10420431;28;20233;-79
2024/01/21 16:17:59;;;;;;;0.40;0.40;;;4.10;96.10;;;;;;10418252;28;20218;-79
2024/01/21 16:23:01;;;;;;;0.40;0.40;;;4.00;96.20;;;;;;10398533;28;20236;-78
2024/01/21 16:28:04;;;;;;;0.40;0.40;;;4.00;96.30;;;;;;10428592;28;20205;-78
2024/01/21 16:33:08;;;;;;;0.40;0.40;;;4.00;96.40;;;;;;10410343;28;20221;-77
2024/01/21 16:38:10;;;;;;;0.30;0.30;;;3.90;96.30;;;;;;10417536;28;20218;-78
2024/01/21 16:43:13;;;;;;;0.40;0.40;;;3.80;96.50;;;;;;10418511;28;20380;-78
2024/01/21 16:48:17;;;;;;;0.50;0.50;;;3.90;96.40;;;;;;10416429;28;20251;-78
2024/01/21 16:53:24;;;;;;;0.40;0.40;;;3.80;96.40;;;;;;10415938;28;20214;-78
2024/01/21 16:58:26;;;;;;;0.30;0.30;;;3.80;96.40;;;;;;10411591;28;20210;-79
2024/01/21 17:03:31;;;;;;;0.50;0.50;;;3.80;96.30;;;;;;10413040;28;20225;-79
2024/01/21 17:08:33;;;;;;;0.50;0.50;;;3.80;96.20;;;;;;10416516;28;20198;-80
2024/01/21 17:13:35;;;;;;;0.43;0.43;;;3.80;96.10;;;;;;10419386;28;20260;-79
2024/01/21 17:18:46;;;;;;;0.17;0.17;;;3.80;96.00;;;;;;10427520;28;20227;-78
2024/01/21 17:23:49;;;;;;;0.37;0.37;;;3.80;96.00;;;;;;10491797;22;20303;-80
2024/01/21 17:28:51;;;;;;;0.40;0.40;;;3.70;96.00;;;;;;10508725;28;20662;-80
2024/01/21 17:33:57;;;;;;;0.50;0.50;;;3.70;96.10;;;;;;10487947;28;20857;-80
2024/01/21 17:39:00;;;;;;;0.40;0.40;;;3.70;96.30;;;;;;10486893;28;20238;-82
2024/01/21 17:44:02;;;;;;;0.20;0.20;;;3.60;96.30;;;;;;10504185;28;20269;-81
2024/01/21 17:49:06;;;;;;;0.40;0.40;;;3.60;96.50;;;;;;10503407;28;20197;-83
2024/01/21 17:54:08;;;;;;;0.60;0.60;;;3.60;96.70;;;;;;10518096;28;20243;-79
2024/01/21 17:59:11;;;;;;;0.47;0.47;;;3.70;96.70;;;;;;10520052;28;20220;-79
2024/01/21 18:04:15;;;;;;;0.43;0.43;;;3.80;96.80;;;;;;10480823;28;20251;-80
2024/01/21 18:09:17;;;;;;;0.50;0.50;;;3.80;96.70;;;;;;10500738;28;20208;-80
2024/01/21 18:14:19;;;;;;;0.57;0.57;;;3.80;96.60;;;;;;10502499;28;20224;-80
2024/01/21 18:19:23;;;;;;;0.50;0.50;;;3.80;96.70;;;;;;10468497;28;20208;-81
2024/01/21 18:24:26;;;;;;;0.60;0.60;;;3.80;96.80;;;;;;10527584;28;20228;-81
2024/01/21 18:29:28;;;;;;;0.50;0.50;;;3.90;97.20;;;;;;10514293;28;20204;-78
2024/01/21 18:34:32;;;;;;;0.43;0.43;;;3.90;96.80;;;;;;10520508;28;20218;-79
2024/01/21 18:39:35;;;;;;;0.70;0.70;;;4.00;96.40;;;;;;10582360;28;20733;-79
2024/01/21 18:44:37;;;;;;;0.40;0.40;;;4.00;96.00;;;;;;10562088;28;20218;-81
2024/01/21 18:49:41;;;;;;;0.50;0.50;;;4.00;96.00;;;;;;10585971;28;20207;-81
2024/01/21 18:54:44;;;;;;;0.40;0.40;;;4.00;95.20;;;;;;10584540;28;20222;-80
2024/01/21 18:59:49;;;;;;;0.33;0.33;;;4.10;94.30;;;;;;10565576;28;20201;-79
2024/01/21 19:04:52;;;;;;;0.40;0.40;;;4.30;93.20;;;;;;10541502;28;20215;-79
2024/01/21 19:09:55;;;;;;;0.40;0.40;;;4.50;92.60;;;;;;10543409;28;20188;-81
2024/01/21 19:14:57;;;;;;;0.40;0.40;;;4.70;92.50;;;;;;10512829;28;20769;-82
2024/01/21 19:20:02;;;;;;;0.40;0.40;;;4.80;92.60;;;;;;10535380;28;20207;-79
2024/01/21 19:25:07;;;;;;;0.40;0.40;;;4.90;92.10;;;;;;10515155;28;20224;-80
2024/01/21 19:30:11;;;;;;;0.40;0.40;;;5.00;91.50;;;;;;10515497;28;20204;-80
2024/01/21 19:35:15;;;;;;;0.30;0.30;;;5.10;91.60;;;;;;10521375;28;20690;-82
2024/01/21 19:40:18;;;;;;;0.30;0.30;;;5.20;91.20;;;;;;10527513;28;20211;-82
2024/01/21 19:45:20;;;;;;;0.30;0.30;;;5.30;91.00;;;;;;10515803;28;20216;-82
2024/01/21 19:50:24;;;;;;;0.40;0.40;;;5.40;90.50;;;;;;10511737;28;20270;-80
2024/01/21 19:55:26;;;;;;;0.40;0.40;;;5.50;90.20;;;;;;10505043;28;20693;-80
2024/01/21 20:00:29;;;;;;;0.40;0.40;;;5.60;89.80;;;;;;10495667;28;20850;-81
2024/01/21 20:05:33;;;;;;;0.20;0.20;;;5.70;89.50;;;;;;10509842;28;20216;-77
2024/01/21 20:10:35;;;;;;;0.40;0.40;;;5.80;89.40;;;;;;10530431;28;20227;-81
2024/01/21 20:15:37;;;;;;;0.20;0.20;;;5.90;88.40;;;;;;10520925;28;20232;-80
2024/01/21 20:20:41;;;;;;;0.40;0.40;;;6.00;86.80;;;;;;10500234;28;20204;-80
2024/01/21 20:25:45;;;;;;;0.40;0.40;;;6.10;87.70;;;;;;10513078;28;20231;-81
2024/01/21 20:30:47;;;;;;;0.30;0.30;;;6.10;88.90;;;;;;10525741;28;20205;-80
2024/01/21 20:35:51;;;;;;;0.30;0.30;;;5.90;89.30;;;;;;10512413;28;20251;-81
2024/01/21 20:40:54;;;;;;;0.30;0.30;;;6.00;86.80;;;;;;10516245;28;20259;-81
2024/01/21 20:45:57;;;;;;;0.30;0.30;;;5.90;87.00;;;;;;10526206;28;20216;-80
2024/01/21 20:51:01;;;;;;;0.30;0.30;;;5.90;85.80;;;;;;10530783;28;20207;-78
2024/01/21 20:56:03;;;;;;;0.30;0.30;;;6.00;84.00;;;;;;10552104;28;20665;-81
2024/01/21 21:01:06;;;;;;;0.40;0.40;;;5.90;84.20;;;;;;10537540;28;20196;-79
2024/01/21 21:06:10;;;;;;;0.30;0.30;;;5.90;84.90;;;;;;10535786;28;20223;-79
2024/01/21 21:11:12;;;;;;;0.40;0.40;;;5.90;83.70;;;;;;10525774;28;20201;-81
2024/01/21 21:16:17;;;;;;;0.30;0.30;;;5.90;83.00;;;;;;10485037;28;20232;-82
2024/01/21 21:21:22;;;;;;;0.40;0.40;;;5.90;83.10;;;;;;10512938;28;20215;-81
2024/01/21 21:26:25;;;;;;;0.40;0.40;;;5.80;82.60;;;;;;10510211;28;20224;-81
2024/01/21 21:31:27;;;;;;;0.30;0.30;;;5.90;82.40;;;;;;10501864;28;20215;-80
2024/01/21 21:36:31;;;;;;;0.30;0.30;;;5.90;81.40;;;;;;10504570;28;20784;-80
2024/01/21 21:41:33;;;;;;;0.30;0.30;;;6.00;81.20;;;;;;10528947;28;20196;-79
2024/01/21 21:46:36;;;;;;;0.20;0.20;;;5.90;80.40;;;;;;10525857;28;20642;-81
2024/01/21 21:51:40;;;;;;;0.20;0.20;;;6.00;79.30;;;;;;10525498;28;20591;-82
2024/01/21 21:56:42;;;;;;;0.20;0.20;;;6.10;78.50;;;;;;10548655;28;20708;-80
2024/01/21 22:01:44;;;;;;;0.20;0.20;;;6.10;79.00;;;;;;10531104;28;20203;-79
2024/01/21 22:06:48;;;;;;;0.30;0.30;;;6.00;79.40;;;;;;10533017;28;20215;-80
2024/01/21 22:11:51;;;;;;;0.30;0.30;;;5.90;80.00;;;;;;10515682;28;20221;-82
2024/01/21 22:16:53;;;;;;;0.30;0.30;;;5.90;79.10;;;;;;10524890;28;20460;-78
2024/01/21 22:21:57;;;;;;;0.30;0.30;;;5.80;78.80;;;;;;10528761;28;20672;-82
2024/01/21 22:26:59;;;;;;;0.30;0.30;;;5.80;78.60;;;;;;10538818;28;20196;-79
2024/01/21 22:32:02;;;;;;;0.30;0.30;;;5.80;77.80;;;;;;10547130;28;20228;-81
2024/01/21 22:37:06;;;;;;;0.33;0.33;;;5.80;77.20;;;;;;10516879;28;20615;-80
2024/01/21 22:42:08;;;;;;;0.20;0.20;;;5.90;76.70;;;;;;10513467;28;20213;-83
2024/01/21 22:47:11;;;;;;;0.20;0.20;;;5.80;76.50;;;;;;10480059;28;20192;-83
2024/01/21 22:52:15;;;;;;;0.30;0.30;;;5.80;76.50;;;;;;10544749;28;20199;-81
2024/01/21 22:57:17;;;;;;;0.23;0.23;;;5.90;76.80;;;;;;10549028;28;20214;-79
2024/01/21 23:02:19;;;;;;;0.30;0.30;;;5.90;76.80;;;;;;10554756;28;20215;-80
2024/01/21 23:07:24;;;;;;;0.40;0.40;;;5.90;76.70;;;;;;10533595;28;20190;-81
2024/01/21 23:12:26;;;;;;;0.27;0.27;;;5.80;76.40;;;;;;10546406;28;20215;-82
2024/01/21 23:17:28;;;;;;;0.37;0.37;;;5.80;76.40;;;;;;10548478;28;20622;-80
2024/01/21 23:22:32;;;;;;;0.30;0.30;;;5.80;76.50;;;;;;10559205;22;20223;-80
2024/01/21 23:27:36;;;;;;;0.30;0.30;;;5.90;77.80;;;;;;10444823;28;20717;-77
2024/01/21 23:32:39;;;;;;;0.30;0.30;;;6.00;76.50;;;;;;10457315;28;20189;-82
2024/01/21 23:37:43;;;;;;;0.40;0.40;;;6.10;76.60;;;;;;10438204;28;20208;-80
2024/01/21 23:42:45;;;;;;;0.40;0.40;;;6.10;75.50;;;;;;10452501;28;20228;-79
2024/01/21 23:47:48;;;;;;;0.30;0.30;;;6.20;74.60;;;;;;10454542;28;20271;-80
2024/01/21 23:52:51;;;;;;;0.40;0.40;;;6.20;73.50;;;;;;10457414;28;20221;-80
2024/01/21 23:57:56;;;;;;;0.40;0.40;;;6.30;72.40;;;;;;10473015;28;20771;-80
